sensor_id;sensor_type;location;lat;lon;timestamp;P1;durP1;ratioP1;P2;durP2;ratioP2
8982;SDS011;20979;59.850;10.660;2023-03-01T00:00:07;1.77;;;1.40;;
8982;SDS011;20979;59.850;10.660;2023-03-01T00:02:34;2.30;;;2.10;;
8982;SDS011;20979;59.850;10.660;2023-03-01T00:05:04;3.57;;;2.03;;
8982;SDS011;20979;59.850;10.660;2023-03-01T00:07:32;3.20;;;2.03;;
8982;SDS011;20979;59.850;10.660;2023-03-01T00:10:00;2.73;;;2.10;;
8982;SDS011;20979;59.850;10.660;2023-03-01T00:12:28;4.80;;;2.47;;
8982;SDS011;20979;59.850;10.660;2023-03-01T00:14:56;2.63;;;2.10;;
8982;SDS011;20979;59.850;10.660;2023-03-01T00:17:23;4.33;;;2.20;;
8982;SDS011;20979;59.850;10.660;2023-03-01T00:19:50;3.53;;;1.97;;
8982;SDS011;20979;59.850;10.660;2023-03-01T00:22:19;2.00;;;1.60;;
8982;SDS011;20979;59.850;10.660;2023-03-01T00:24:46;2.83;;;1.90;;
8982;SDS011;20979;59.850;10.660;2023-03-01T00:27:14;1.80;;;1.60;;
8982;SDS011;20979;59.850;10.660;2023-03-01T00:29:41;2.47;;;1.80;;
8982;SDS011;20979;59.850;10.660;2023-03-01T00:32:09;1.70;;;1.43;;
8982;SDS011;20979;59.850;10.660;2023-03-01T00:34:36;1.47;;;1.30;;
8982;SDS011;20979;59.850;10.660;2023-03-01T00:37:03;4.27;;;1.47;;
8982;SDS011;20979;59.850;10.660;2023-03-01T00:39:32;2.17;;;1.70;;
8982;SDS011;20979;59.850;10.660;2023-03-01T00:42:00;1.80;;;1.70;;
8982;SDS011;20979;59.850;10.660;2023-03-01T00:44:27;1.97;;;1.73;;
8982;SDS011;20979;59.850;10.660;2023-03-01T00:46:54;2.07;;;1.77;;
8982;SDS011;20979;59.850;10.660;2023-03-01T00:49:22;2.87;;;1.93;;
8982;SDS011;20979;59.850;10.660;2023-03-01T00:51:52;2.90;;;1.80;;
8982;SDS011;20979;59.850;10.660;2023-03-01T00:54:20;2.10;;;1.50;;
8982;SDS011;20979;59.850;10.660;2023-03-01T00:56:49;1.20;;;1.10;;
8982;SDS011;20979;59.850;10.660;2023-03-01T00:59:16;2.00;;;1.50;;
8982;SDS011;20979;59.850;10.660;2023-03-01T01:01:43;1.23;;;1.07;;
8982;SDS011;20979;59.850;10.660;2023-03-01T01:04:12;1.87;;;1.03;;
8982;SDS011;20979;59.850;10.660;2023-03-01T01:06:40;1.67;;;1.10;;
8982;SDS011;20979;59.850;10.660;2023-03-01T01:09:08;1.13;;;0.90;;
8982;SDS011;20979;59.850;10.660;2023-03-01T01:11:42;0.83;;;0.70;;
8982;SDS011;20979;59.850;10.660;2023-03-01T01:14:11;0.67;;;0.67;;
8982;SDS011;20979;59.850;10.660;2023-03-01T01:16:38;0.93;;;0.80;;
8982;SDS011;20979;59.850;10.660;2023-03-01T01:19:05;0.70;;;0.70;;
8982;SDS011;20979;59.850;10.660;2023-03-01T01:21:33;0.60;;;0.60;;
8982;SDS011;20979;59.850;10.660;2023-03-01T01:24:02;0.60;;;0.60;;
8982;SDS011;20979;59.850;10.660;2023-03-01T01:26:30;0.53;;;0.53;;
8982;SDS011;20979;59.850;10.660;2023-03-01T01:28:58;0.60;;;0.60;;
8982;SDS011;20979;59.850;10.660;2023-03-01T01:31:27;0.67;;;0.67;;
8982;SDS011;20979;59.850;10.660;2023-03-01T01:33:55;1.17;;;0.80;;
8982;SDS011;20979;59.850;10.660;2023-03-01T01:36:22;1.00;;;0.70;;
8982;SDS011;20979;59.850;10.660;2023-03-01T01:38:50;0.63;;;0.63;;
8982;SDS011;20979;59.850;10.660;2023-03-01T01:41:17;0.50;;;0.50;;
8982;SDS011;20979;59.850;10.660;2023-03-01T01:43:46;0.70;;;0.70;;
8982;SDS011;20979;59.850;10.660;2023-03-01T01:46:16;0.60;;;0.60;;
8982;SDS011;20979;59.850;10.660;2023-03-01T01:48:46;0.63;;;0.63;;
8982;SDS011;20979;59.850;10.660;2023-03-01T01:51:16;0.60;;;0.60;;
8982;SDS011;20979;59.850;10.660;2023-03-01T01:53:45;0.70;;;0.60;;
8982;SDS011;20979;59.850;10.660;2023-03-01T01:56:15;0.70;;;0.60;;
8982;SDS011;20979;59.850;10.660;2023-03-01T01:58:44;2.87;;;0.70;;
8982;SDS011;20979;59.850;10.660;2023-03-01T02:01:12;0.40;;;0.40;;
8982;SDS011;20979;59.850;10.660;2023-03-01T02:03:40;0.57;;;0.57;;
8982;SDS011;20979;59.850;10.660;2023-03-01T02:06:12;0.63;;;0.60;;
8982;SDS011;20979;59.850;10.660;2023-03-01T02:08:42;2.47;;;0.70;;
8982;SDS011;20979;59.850;10.660;2023-03-01T02:11:11;0.50;;;0.50;;
8982;SDS011;20979;59.850;10.660;2023-03-01T02:13:41;0.67;;;0.67;;
8982;SDS011;20979;59.850;10.660;2023-03-01T02:16:09;0.83;;;0.80;;
8982;SDS011;20979;59.850;10.660;2023-03-01T02:18:36;0.60;;;0.60;;
8982;SDS011;20979;59.850;10.660;2023-03-01T02:21:07;2.00;;;0.80;;
8982;SDS011;20979;59.850;10.660;2023-03-01T02:23:37;0.40;;;0.40;;
8982;SDS011;20979;59.850;10.660;2023-03-01T02:26:07;0.50;;;0.40;;
8982;SDS011;20979;59.850;10.660;2023-03-01T02:28:38;0.80;;;0.70;;
8982;SDS011;20979;59.850;10.660;2023-03-01T02:31:07;0.57;;;0.57;;
8982;SDS011;20979;59.850;10.660;2023-03-01T02:34:09;0.93;;;0.40;;
8982;SDS011;20979;59.850;10.660;2023-03-01T02:36:37;0.50;;;0.50;;
8982;SDS011;20979;59.850;10.660;2023-03-01T02:39:07;0.40;;;0.40;;
8982;SDS011;20979;59.850;10.660;2023-03-01T02:41:39;0.40;;;0.40;;
8982;SDS011;20979;59.850;10.660;2023-03-01T02:44:09;0.67;;;0.60;;
8982;SDS011;20979;59.850;10.660;2023-03-01T02:46:42;0.50;;;0.50;;
8982;SDS011;20979;59.850;10.660;2023-03-01T02:49:17;0.70;;;0.50;;
8982;SDS011;20979;59.850;10.660;2023-03-01T02:51:47;0.50;;;0.50;;
8982;SDS011;20979;59.850;10.660;2023-03-01T02:54:17;0.63;;;0.47;;
8982;SDS011;20979;59.850;10.660;2023-03-01T02:56:48;0.60;;;0.60;;
8982;SDS011;20979;59.850;10.660;2023-03-01T02:59:18;0.50;;;0.50;;
8982;SDS011;20979;59.850;10.660;2023-03-01T03:01:47;0.60;;;0.60;;
8982;SDS011;20979;59.850;10.660;2023-03-01T03:04:14;0.50;;;0.50;;
8982;SDS011;20979;59.850;10.660;2023-03-01T03:06:43;0.73;;;0.60;;
8982;SDS011;20979;59.850;10.660;2023-03-01T03:09:10;0.50;;;0.50;;
8982;SDS011;20979;59.850;10.660;2023-03-01T03:11:38;0.40;;;0.40;;
8982;SDS011;20979;59.850;10.660;2023-03-01T03:14:06;0.70;;;0.43;;
8982;SDS011;20979;59.850;10.660;2023-03-01T03:16:39;0.77;;;0.40;;
8982;SDS011;20979;59.850;10.660;2023-03-01T03:19:07;0.50;;;0.50;;
8982;SDS011;20979;59.850;10.660;2023-03-01T03:21:34;0.40;;;0.40;;
8982;SDS011;20979;59.850;10.660;2023-03-01T03:24:02;0.50;;;0.50;;
8982;SDS011;20979;59.850;10.660;2023-03-01T03:26:29;0.60;;;0.50;;
8982;SDS011;20979;59.850;10.660;2023-03-01T03:28:57;0.53;;;0.53;;
8982;SDS011;20979;59.850;10.660;2023-03-01T03:31:24;1.00;;;0.50;;
8982;SDS011;20979;59.850;10.660;2023-03-01T03:33:53;1.00;;;0.43;;
8982;SDS011;20979;59.850;10.660;2023-03-01T03:36:22;0.90;;;0.60;;
8982;SDS011;20979;59.850;10.660;2023-03-01T03:38:49;0.40;;;0.40;;
8982;SDS011;20979;59.850;10.660;2023-03-01T03:41:17;0.47;;;0.40;;
8982;SDS011;20979;59.850;10.660;2023-03-01T03:43:44;0.50;;;0.50;;
8982;SDS011;20979;59.850;10.660;2023-03-01T03:46:12;0.53;;;0.53;;
8982;SDS011;20979;59.850;10.660;2023-03-01T03:48:40;0.47;;;0.47;;
8982;SDS011;20979;59.850;10.660;2023-03-01T03:51:11;0.70;;;0.70;;
8982;SDS011;20979;59.850;10.660;2023-03-01T03:53:38;0.40;;;0.40;;
8982;SDS011;20979;59.850;10.660;2023-03-01T03:56:06;0.50;;;0.50;;
8982;SDS011;20979;59.850;10.660;2023-03-01T03:58:33;0.30;;;0.30;;
8982;SDS011;20979;59.850;10.660;2023-03-01T04:01:01;0.40;;;0.40;;
8982;SDS011;20979;59.850;10.660;2023-03-01T04:03:29;0.50;;;0.50;;
8982;SDS011;20979;59.850;10.660;2023-03-01T04:05:57;0.30;;;0.30;;
8982;SDS011;20979;59.850;10.660;2023-03-01T04:08:27;0.40;;;0.40;;
8982;SDS011;20979;59.850;10.660;2023-03-01T04:10:57;0.30;;;0.30;;
8982;SDS011;20979;59.850;10.660;2023-03-01T04:13:25;0.47;;;0.40;;
8982;SDS011;20979;59.850;10.660;2023-03-01T04:15:53;0.33;;;0.33;;
8982;SDS011;20979;59.850;10.660;2023-03-01T04:18:22;0.40;;;0.40;;
8982;SDS011;20979;59.850;10.660;2023-03-01T04:20:49;0.67;;;0.50;;
8982;SDS011;20979;59.850;10.660;2023-03-01T04:23:20;0.30;;;0.30;;
8982;SDS011;20979;59.850;10.660;2023-03-01T04:25:49;0.87;;;0.40;;
8982;SDS011;20979;59.850;10.660;2023-03-01T04:28:19;0.30;;;0.30;;
8982;SDS011;20979;59.850;10.660;2023-03-01T04:30:47;0.30;;;0.30;;
8982;SDS011;20979;59.850;10.660;2023-03-01T04:33:14;0.40;;;0.40;;
8982;SDS011;20979;59.850;10.660;2023-03-01T04:35:43;0.27;;;0.27;;
8982;SDS011;20979;59.850;10.660;2023-03-01T04:38:11;0.33;;;0.30;;
8982;SDS011;20979;59.850;10.660;2023-03-01T04:40:38;0.30;;;0.30;;
8982;SDS011;20979;59.850;10.660;2023-03-01T04:43:09;0.50;;;0.40;;
8982;SDS011;20979;59.850;10.660;2023-03-01T04:45:37;0.30;;;0.30;;
8982;SDS011;20979;59.850;10.660;2023-03-01T04:48:04;1.60;;;0.40;;
8982;SDS011;20979;59.850;10.660;2023-03-01T04:50:32;1.00;;;0.50;;
8982;SDS011;20979;59.850;10.660;2023-03-01T04:52:59;0.50;;;0.50;;
8982;SDS011;20979;59.850;10.660;2023-03-01T04:55:27;0.40;;;0.40;;
8982;SDS011;20979;59.850;10.660;2023-03-01T04:57:55;0.53;;;0.40;;
8982;SDS011;20979;59.850;10.660;2023-03-01T05:00:23;0.40;;;0.40;;
8982;SDS011;20979;59.850;10.660;2023-03-01T05:02:51;1.63;;;0.53;;
8982;SDS011;20979;59.850;10.660;2023-03-01T05:05:23;0.40;;;0.40;;
8982;SDS011;20979;59.850;10.660;2023-03-01T05:07:52;0.37;;;0.30;;
8982;SDS011;20979;59.850;10.660;2023-03-01T05:10:20;0.50;;;0.50;;
8982;SDS011;20979;59.850;10.660;2023-03-01T05:12:47;0.40;;;0.40;;
8982;SDS011;20979;59.850;10.660;2023-03-01T05:15:14;0.60;;;0.47;;
8982;SDS011;20979;59.850;10.660;2023-03-01T05:17:43;0.50;;;0.50;;
8982;SDS011;20979;59.850;10.660;2023-03-01T05:20:11;0.30;;;0.30;;
8982;SDS011;20979;59.850;10.660;2023-03-01T05:22:39;0.50;;;0.50;;
8982;SDS011;20979;59.850;10.660;2023-03-01T05:25:07;0.43;;;0.43;;
8982;SDS011;20979;59.850;10.660;2023-03-01T05:27:34;0.50;;;0.50;;
8982;SDS011;20979;59.850;10.660;2023-03-01T05:30:02;0.40;;;0.40;;
8982;SDS011;20979;59.850;10.660;2023-03-01T05:32:39;0.67;;;0.67;;
8982;SDS011;20979;59.850;10.660;2023-03-01T05:35:09;0.70;;;0.70;;
8982;SDS011;20979;59.850;10.660;2023-03-01T05:37:40;0.60;;;0.60;;
8982;SDS011;20979;59.850;10.660;2023-03-01T05:40:08;0.60;;;0.60;;
8982;SDS011;20979;59.850;10.660;2023-03-01T05:42:43;0.60;;;0.60;;
8982;SDS011;20979;59.850;10.660;2023-03-01T05:45:11;1.33;;;0.60;;
8982;SDS011;20979;59.850;10.660;2023-03-01T05:47:38;0.60;;;0.60;;
8982;SDS011;20979;59.850;10.660;2023-03-01T05:50:11;0.60;;;0.60;;
8982;SDS011;20979;59.850;10.660;2023-03-01T05:52:38;0.80;;;0.77;;
8982;SDS011;20979;59.850;10.660;2023-03-01T05:55:06;1.27;;;0.53;;
8982;SDS011;20979;59.850;10.660;2023-03-01T05:57:34;0.83;;;0.50;;
8982;SDS011;20979;59.850;10.660;2023-03-01T06:00:01;0.70;;;0.70;;
8982;SDS011;20979;59.850;10.660;2023-03-01T06:02:29;0.67;;;0.60;;
8982;SDS011;20979;59.850;10.660;2023-03-01T06:04:56;0.70;;;0.70;;
8982;SDS011;20979;59.850;10.660;2023-03-01T06:07:25;1.00;;;1.00;;
8982;SDS011;20979;59.850;10.660;2023-03-01T06:09:52;2.67;;;1.00;;
8982;SDS011;20979;59.850;10.660;2023-03-01T06:12:19;2.27;;;1.10;;
8982;SDS011;20979;59.850;10.660;2023-03-01T06:14:47;1.03;;;1.03;;
8982;SDS011;20979;59.850;10.660;2023-03-01T06:17:14;2.17;;;1.50;;
8982;SDS011;20979;59.850;10.660;2023-03-01T06:19:41;1.60;;;1.50;;
8982;SDS011;20979;59.850;10.660;2023-03-01T06:22:09;1.40;;;1.30;;
8982;SDS011;20979;59.850;10.660;2023-03-01T06:24:38;1.40;;;1.30;;
8982;SDS011;20979;59.850;10.660;2023-03-01T06:27:05;3.13;;;1.20;;
8982;SDS011;20979;59.850;10.660;2023-03-01T06:29:32;1.37;;;0.93;;
8982;SDS011;20979;59.850;10.660;2023-03-01T06:31:59;1.37;;;1.10;;
8982;SDS011;20979;59.850;10.660;2023-03-01T06:34:27;0.90;;;0.90;;
8982;SDS011;20979;59.850;10.660;2023-03-01T06:36:54;1.30;;;1.20;;
8982;SDS011;20979;59.850;10.660;2023-03-01T06:39:21;1.47;;;1.03;;
8982;SDS011;20979;59.850;10.660;2023-03-01T06:41:50;0.90;;;0.90;;
8982;SDS011;20979;59.850;10.660;2023-03-01T06:44:18;1.77;;;1.27;;
8982;SDS011;20979;59.850;10.660;2023-03-01T06:46:45;0.97;;;0.97;;
8982;SDS011;20979;59.850;10.660;2023-03-01T06:49:12;0.93;;;0.93;;
8982;SDS011;20979;59.850;10.660;2023-03-01T06:51:41;1.10;;;1.00;;
8982;SDS011;20979;59.850;10.660;2023-03-01T06:54:08;1.80;;;1.10;;
8982;SDS011;20979;59.850;10.660;2023-03-01T06:56:36;1.57;;;1.47;;
8982;SDS011;20979;59.850;10.660;2023-03-01T06:59:04;2.03;;;1.30;;
8982;SDS011;20979;59.850;10.660;2023-03-01T07:01:32;1.47;;;1.20;;
8982;SDS011;20979;59.850;10.660;2023-03-01T07:03:59;0.77;;;0.60;;
8982;SDS011;20979;59.850;10.660;2023-03-01T07:06:26;1.10;;;1.00;;
8982;SDS011;20979;59.850;10.660;2023-03-01T07:08:54;1.20;;;1.00;;
8982;SDS011;20979;59.850;10.660;2023-03-01T07:11:21;1.63;;;0.80;;
8982;SDS011;20979;59.850;10.660;2023-03-01T07:13:48;3.43;;;1.50;;
8982;SDS011;20979;59.850;10.660;2023-03-01T07:16:17;1.00;;;0.90;;
8982;SDS011;20979;59.850;10.660;2023-03-01T07:18:45;1.03;;;1.00;;
8982;SDS011;20979;59.850;10.660;2023-03-01T07:21:13;1.90;;;1.53;;
8982;SDS011;20979;59.850;10.660;2023-03-01T07:23:41;1.10;;;1.00;;
8982;SDS011;20979;59.850;10.660;2023-03-01T07:26:08;2.13;;;1.07;;
8982;SDS011;20979;59.850;10.660;2023-03-01T07:28:36;2.40;;;1.50;;
8982;SDS011;20979;59.850;10.660;2023-03-01T07:31:04;3.90;;;1.93;;
8982;SDS011;20979;59.850;10.660;2023-03-01T07:33:33;3.00;;;2.13;;
8982;SDS011;20979;59.850;10.660;2023-03-01T07:36:01;2.67;;;1.67;;
8982;SDS011;20979;59.850;10.660;2023-03-01T07:38:29;2.10;;;1.20;;
8982;SDS011;20979;59.850;10.660;2023-03-01T07:40:57;1.30;;;1.07;;
8982;SDS011;20979;59.850;10.660;2023-03-01T07:43:25;1.00;;;0.80;;
8982;SDS011;20979;59.850;10.660;2023-03-01T07:45:52;1.37;;;1.00;;
8982;SDS011;20979;59.850;10.660;2023-03-01T07:48:20;2.20;;;0.80;;
8982;SDS011;20979;59.850;10.660;2023-03-01T07:50:48;1.23;;;1.13;;
8982;SDS011;20979;59.850;10.660;2023-03-01T07:53:16;0.93;;;0.90;;
8982;SDS011;20979;59.850;10.660;2023-03-01T07:55:45;1.43;;;1.13;;
8982;SDS011;20979;59.850;10.660;2023-03-01T07:58:18;2.13;;;1.13;;
8982;SDS011;20979;59.850;10.660;2023-03-01T08:00:45;0.80;;;0.80;;
8982;SDS011;20979;59.850;10.660;2023-03-01T08:03:13;2.40;;;1.10;;
8982;SDS011;20979;59.850;10.660;2023-03-01T08:05:40;1.93;;;1.00;;
8982;SDS011;20979;59.850;10.660;2023-03-01T08:08:09;3.13;;;1.13;;
8982;SDS011;20979;59.850;10.660;2023-03-01T08:10:36;0.70;;;0.70;;
8982;SDS011;20979;59.850;10.660;2023-03-01T08:13:04;1.47;;;0.90;;
8982;SDS011;20979;59.850;10.660;2023-03-01T08:15:31;0.70;;;0.70;;
8982;SDS011;20979;59.850;10.660;2023-03-01T08:17:59;1.40;;;0.87;;
8982;SDS011;20979;59.850;10.660;2023-03-01T08:20:26;0.70;;;0.70;;
8982;SDS011;20979;59.850;10.660;2023-03-01T08:22:53;0.70;;;0.70;;
8982;SDS011;20979;59.850;10.660;2023-03-01T08:25:22;0.87;;;0.80;;
8982;SDS011;20979;59.850;10.660;2023-03-01T08:27:49;1.27;;;1.17;;
8982;SDS011;20979;59.850;10.660;2023-03-01T08:30:17;0.80;;;0.80;;
8982;SDS011;20979;59.850;10.660;2023-03-01T08:32:45;1.03;;;0.80;;
8982;SDS011;20979;59.850;10.660;2023-03-01T08:35:12;0.83;;;0.83;;
8982;SDS011;20979;59.850;10.660;2023-03-01T08:37:40;0.70;;;0.70;;
8982;SDS011;20979;59.850;10.660;2023-03-01T08:40:08;1.50;;;1.40;;
8982;SDS011;20979;59.850;10.660;2023-03-01T08:42:37;1.03;;;0.93;;
8982;SDS011;20979;59.850;10.660;2023-03-01T08:45:05;1.37;;;0.80;;
8982;SDS011;20979;59.850;10.660;2023-03-01T08:47:32;0.83;;;0.70;;
8982;SDS011;20979;59.850;10.660;2023-03-01T08:49:59;1.27;;;0.60;;
8982;SDS011;20979;59.850;10.660;2023-03-01T08:52:27;0.77;;;0.60;;
8982;SDS011;20979;59.850;10.660;2023-03-01T08:54:55;1.50;;;0.73;;
8982;SDS011;20979;59.850;10.660;2023-03-01T08:57:22;0.90;;;0.60;;
8982;SDS011;20979;59.850;10.660;2023-03-01T08:59:51;0.63;;;0.63;;
8982;SDS011;20979;59.850;10.660;2023-03-01T09:02:21;0.87;;;0.60;;
8982;SDS011;20979;59.850;10.660;2023-03-01T09:04:48;1.13;;;0.90;;
8982;SDS011;20979;59.850;10.660;2023-03-01T09:07:15;0.80;;;0.80;;
8982;SDS011;20979;59.850;10.660;2023-03-01T09:09:43;0.70;;;0.70;;
8982;SDS011;20979;59.850;10.660;2023-03-01T09:12:10;0.97;;;0.90;;
8982;SDS011;20979;59.850;10.660;2023-03-01T09:14:37;0.80;;;0.80;;
8982;SDS011;20979;59.850;10.660;2023-03-01T09:17:07;2.03;;;0.83;;
8982;SDS011;20979;59.850;10.660;2023-03-01T09:19:35;0.67;;;0.67;;
8982;SDS011;20979;59.850;10.660;2023-03-01T09:22:02;1.20;;;0.60;;
8982;SDS011;20979;59.850;10.660;2023-03-01T09:24:30;2.50;;;0.60;;
8982;SDS011;20979;59.850;10.660;2023-03-01T09:26:57;1.00;;;0.70;;
8982;SDS011;20979;59.850;10.660;2023-03-01T09:29:24;0.80;;;0.80;;
8982;SDS011;20979;59.850;10.660;2023-03-01T09:31:52;0.63;;;0.63;;
8982;SDS011;20979;59.850;10.660;2023-03-01T09:34:22;0.80;;;0.63;;
8982;SDS011;20979;59.850;10.660;2023-03-01T09:36:49;0.60;;;0.60;;
8982;SDS011;20979;59.850;10.660;2023-03-01T09:39:17;1.57;;;0.70;;
8982;SDS011;20979;59.850;10.660;2023-03-01T09:41:46;1.30;;;0.90;;
8982;SDS011;20979;59.850;10.660;2023-03-01T09:44:31;1.73;;;0.80;;
8982;SDS011;20979;59.850;10.660;2023-03-01T09:47:00;1.77;;;0.60;;
8982;SDS011;20979;59.850;10.660;2023-03-01T09:49:29;0.87;;;0.60;;
8982;SDS011;20979;59.850;10.660;2023-03-01T09:51:59;0.77;;;0.70;;
8982;SDS011;20979;59.850;10.660;2023-03-01T09:54:26;2.33;;;1.20;;
8982;SDS011;20979;59.850;10.660;2023-03-01T09:57:01;1.87;;;0.80;;
8982;SDS011;20979;59.850;10.660;2023-03-01T09:59:30;1.93;;;1.00;;
8982;SDS011;20979;59.850;10.660;2023-03-01T10:02:01;1.37;;;0.60;;
8982;SDS011;20979;59.850;10.660;2023-03-01T10:04:35;0.60;;;0.53;;
8982;SDS011;20979;59.850;10.660;2023-03-01T10:07:12;2.60;;;0.77;;
8982;SDS011;20979;59.850;10.660;2023-03-01T10:09:43;0.67;;;0.60;;
8982;SDS011;20979;59.850;10.660;2023-03-01T10:12:11;0.73;;;0.70;;
8982;SDS011;20979;59.850;10.660;2023-03-01T10:14:41;1.20;;;0.57;;
8982;SDS011;20979;59.850;10.660;2023-03-01T10:17:12;0.60;;;0.60;;
8982;SDS011;20979;59.850;10.660;2023-03-01T10:19:45;1.53;;;0.60;;
8982;SDS011;20979;59.850;10.660;2023-03-01T10:22:13;0.57;;;0.40;;
8982;SDS011;20979;59.850;10.660;2023-03-01T10:24:42;1.03;;;0.63;;
8982;SDS011;20979;59.850;10.660;2023-03-01T10:27:12;1.63;;;0.57;;
8982;SDS011;20979;59.850;10.660;2023-03-01T10:29:43;1.13;;;0.80;;
8982;SDS011;20979;59.850;10.660;2023-03-01T10:32:13;0.97;;;0.67;;
8982;SDS011;20979;59.850;10.660;2023-03-01T10:34:40;0.57;;;0.50;;
8982;SDS011;20979;59.850;10.660;2023-03-01T10:37:11;0.60;;;0.60;;
8982;SDS011;20979;59.850;10.660;2023-03-01T10:39:54;1.40;;;0.70;;
8982;SDS011;20979;59.850;10.660;2023-03-01T10:42:25;1.90;;;0.70;;
8982;SDS011;20979;59.850;10.660;2023-03-01T10:44:52;1.90;;;1.03;;
8982;SDS011;20979;59.850;10.660;2023-03-01T10:47:20;1.47;;;0.50;;
8982;SDS011;20979;59.850;10.660;2023-03-01T10:49:51;1.60;;;0.60;;
8982;SDS011;20979;59.850;10.660;2023-03-01T10:52:21;0.50;;;0.40;;
8982;SDS011;20979;59.850;10.660;2023-03-01T10:54:54;1.10;;;0.60;;
8982;SDS011;20979;59.850;10.660;2023-03-01T10:57:25;1.20;;;0.80;;
8982;SDS011;20979;59.850;10.660;2023-03-01T11:00:00;2.93;;;0.53;;
8982;SDS011;20979;59.850;10.660;2023-03-01T11:02:28;0.60;;;0.60;;
8982;SDS011;20979;59.850;10.660;2023-03-01T11:04:58;0.43;;;0.43;;
8982;SDS011;20979;59.850;10.660;2023-03-01T11:07:28;1.23;;;0.67;;
8982;SDS011;20979;59.850;10.660;2023-03-01T11:09:55;0.40;;;0.40;;
8982;SDS011;20979;59.850;10.660;2023-03-01T11:12:22;1.60;;;0.47;;
8982;SDS011;20979;59.850;10.660;2023-03-01T11:14:52;0.40;;;0.40;;
8982;SDS011;20979;59.850;10.660;2023-03-01T11:17:31;1.73;;;0.40;;
8982;SDS011;20979;59.850;10.660;2023-03-01T11:20:06;0.90;;;0.50;;
8982;SDS011;20979;59.850;10.660;2023-03-01T11:22:38;1.03;;;0.60;;
8982;SDS011;20979;59.850;10.660;2023-03-01T11:25:19;0.90;;;0.60;;
8982;SDS011;20979;59.850;10.660;2023-03-01T11:27:49;1.37;;;0.57;;
8982;SDS011;20979;59.850;10.660;2023-03-01T11:30:18;0.80;;;0.40;;
8982;SDS011;20979;59.850;10.660;2023-03-01T11:32:48;0.83;;;0.50;;
8982;SDS011;20979;59.850;10.660;2023-03-01T11:35:18;0.83;;;0.50;;
8982;SDS011;20979;59.850;10.660;2023-03-01T11:37:53;1.43;;;0.50;;
8982;SDS011;20979;59.850;10.660;2023-03-01T11:40:24;0.73;;;0.60;;
8982;SDS011;20979;59.850;10.660;2023-03-01T11:42:56;1.17;;;0.50;;
8982;SDS011;20979;59.850;10.660;2023-03-01T11:45:26;0.40;;;0.40;;
8982;SDS011;20979;59.850;10.660;2023-03-01T11:48:10;0.63;;;0.53;;
8982;SDS011;20979;59.850;10.660;2023-03-01T11:50:46;1.47;;;0.60;;
8982;SDS011;20979;59.850;10.660;2023-03-01T11:53:21;1.63;;;0.50;;
8982;SDS011;20979;59.850;10.660;2023-03-01T11:55:58;1.83;;;0.50;;
8982;SDS011;20979;59.850;10.660;2023-03-01T11:58:35;0.40;;;0.40;;
8982;SDS011;20979;59.850;10.660;2023-03-01T12:01:16;0.50;;;0.50;;
8982;SDS011;20979;59.850;10.660;2023-03-01T12:03:51;0.60;;;0.60;;
8982;SDS011;20979;59.850;10.660;2023-03-01T12:06:27;0.63;;;0.63;;
8982;SDS011;20979;59.850;10.660;2023-03-01T12:09:00;1.63;;;0.40;;
8982;SDS011;20979;59.850;10.660;2023-03-01T12:14:23;0.50;;;0.50;;
8982;SDS011;20979;59.850;10.660;2023-03-01T12:17:03;1.80;;;0.97;;
8982;SDS011;20979;59.850;10.660;2023-03-01T12:19:56;1.53;;;0.60;;
8982;SDS011;20979;59.850;10.660;2023-03-01T12:22:35;0.43;;;0.40;;
8982;SDS011;20979;59.850;10.660;2023-03-01T12:25:12;1.53;;;0.50;;
8982;SDS011;20979;59.850;10.660;2023-03-01T12:28:04;0.50;;;0.50;;
8982;SDS011;20979;59.850;10.660;2023-03-01T12:30:40;1.27;;;0.40;;
8982;SDS011;20979;59.850;10.660;2023-03-01T12:33:13;0.57;;;0.50;;
8982;SDS011;20979;59.850;10.660;2023-03-01T12:35:48;0.60;;;0.50;;
8982;SDS011;20979;59.850;10.660;2023-03-01T12:38:30;0.70;;;0.40;;
8982;SDS011;20979;59.850;10.660;2023-03-01T12:44:04;0.30;;;0.30;;
8982;SDS011;20979;59.850;10.660;2023-03-01T12:46:41;0.47;;;0.40;;
8982;SDS011;20979;59.850;10.660;2023-03-01T12:49:12;0.73;;;0.47;;
8982;SDS011;20979;59.850;10.660;2023-03-01T12:52:00;0.50;;;0.37;;
8982;SDS011;20979;59.850;10.660;2023-03-01T12:54:35;0.80;;;0.60;;
8982;SDS011;20979;59.850;10.660;2023-03-01T12:57:09;0.77;;;0.40;;
8982;SDS011;20979;59.850;10.660;2023-03-01T12:59:45;1.50;;;0.40;;
8982;SDS011;20979;59.850;10.660;2023-03-01T13:02:20;0.53;;;0.30;;
8982;SDS011;20979;59.850;10.660;2023-03-01T13:04:54;0.60;;;0.40;;
8982;SDS011;20979;59.850;10.660;2023-03-01T13:07:34;0.40;;;0.40;;
8982;SDS011;20979;59.850;10.660;2023-03-01T13:10:22;1.33;;;0.40;;
8982;SDS011;20979;59.850;10.660;2023-03-01T13:12:53;0.37;;;0.37;;
8982;SDS011;20979;59.850;10.660;2023-03-01T13:15:38;0.67;;;0.40;;
8982;SDS011;20979;59.850;10.660;2023-03-01T13:18:32;0.50;;;0.50;;
8982;SDS011;20979;59.850;10.660;2023-03-01T13:21:01;1.77;;;0.50;;
8982;SDS011;20979;59.850;10.660;2023-03-01T13:23:31;0.50;;;0.40;;
8982;SDS011;20979;59.850;10.660;2023-03-01T13:26:05;1.00;;;0.33;;
8982;SDS011;20979;59.850;10.660;2023-03-01T13:28:40;0.30;;;0.30;;
8982;SDS011;20979;59.850;10.660;2023-03-01T13:31:09;0.37;;;0.37;;
8982;SDS011;20979;59.850;10.660;2023-03-01T13:33:45;1.07;;;0.60;;
8982;SDS011;20979;59.850;10.660;2023-03-01T13:39:26;0.30;;;0.30;;
8982;SDS011;20979;59.850;10.660;2023-03-01T13:41:56;0.40;;;0.40;;
8982;SDS011;20979;59.850;10.660;2023-03-01T13:44:29;0.40;;;0.40;;
8982;SDS011;20979;59.850;10.660;2023-03-01T13:46:59;0.30;;;0.30;;
8982;SDS011;20979;59.850;10.660;2023-03-01T13:49:33;0.73;;;0.20;;
8982;SDS011;20979;59.850;10.660;2023-03-01T13:52:03;0.97;;;0.20;;
8982;SDS011;20979;59.850;10.660;2023-03-01T13:54:36;0.20;;;0.20;;
8982;SDS011;20979;59.850;10.660;2023-03-01T13:57:05;0.80;;;0.30;;
8982;SDS011;20979;59.850;10.660;2023-03-01T13:59:46;0.47;;;0.27;;
8982;SDS011;20979;59.850;10.660;2023-03-01T14:02:16;0.40;;;0.30;;
8982;SDS011;20979;59.850;10.660;2023-03-01T14:04:55;1.60;;;0.30;;
8982;SDS011;20979;59.850;10.660;2023-03-01T14:07:23;0.40;;;0.40;;
8982;SDS011;20979;59.850;10.660;2023-03-01T14:09:51;3.43;;;0.63;;
8982;SDS011;20979;59.850;10.660;2023-03-01T14:12:23;1.40;;;0.50;;
8982;SDS011;20979;59.850;10.660;2023-03-01T14:14:55;0.23;;;0.23;;
8982;SDS011;20979;59.850;10.660;2023-03-01T14:20:11;0.73;;;0.30;;
8982;SDS011;20979;59.850;10.660;2023-03-01T14:22:48;0.40;;;0.30;;
8982;SDS011;20979;59.850;10.660;2023-03-01T14:25:19;1.17;;;1.00;;
8982;SDS011;20979;59.850;10.660;2023-03-01T14:27:50;1.00;;;0.90;;
8982;SDS011;20979;59.850;10.660;2023-03-01T14:30:21;2.77;;;2.20;;
8982;SDS011;20979;59.850;10.660;2023-03-01T14:32:54;0.83;;;0.83;;
8982;SDS011;20979;59.850;10.660;2023-03-01T14:35:40;0.57;;;0.40;;
8982;SDS011;20979;59.850;10.660;2023-03-01T14:38:19;0.53;;;0.30;;
8982;SDS011;20979;59.850;10.660;2023-03-01T14:43:35;0.13;;;0.13;;
8982;SDS011;20979;59.850;10.660;2023-03-01T14:46:03;0.90;;;0.40;;
8982;SDS011;20979;59.850;10.660;2023-03-01T14:48:31;0.50;;;0.30;;
8982;SDS011;20979;59.850;10.660;2023-03-01T14:51:00;0.80;;;0.40;;
8982;SDS011;20979;59.850;10.660;2023-03-01T14:53:28;1.30;;;0.40;;
8982;SDS011;20979;59.850;10.660;2023-03-01T14:55:59;1.87;;;0.50;;
8982;SDS011;20979;59.850;10.660;2023-03-01T14:58:33;1.57;;;0.40;;
8982;SDS011;20979;59.850;10.660;2023-03-01T15:01:02;0.47;;;0.30;;
8982;SDS011;20979;59.850;10.660;2023-03-01T15:03:33;0.53;;;0.50;;
8982;SDS011;20979;59.850;10.660;2023-03-01T15:08:53;0.60;;;0.60;;
8982;SDS011;20979;59.850;10.660;2023-03-01T15:11:27;0.73;;;0.60;;
8982;SDS011;20979;59.850;10.660;2023-03-01T15:13:55;0.67;;;0.67;;
8982;SDS011;20979;59.850;10.660;2023-03-01T15:16:23;0.53;;;0.50;;
8982;SDS011;20979;59.850;10.660;2023-03-01T15:18:54;0.83;;;0.53;;
8982;SDS011;20979;59.850;10.660;2023-03-01T15:21:23;0.53;;;0.40;;